Time;durP1;ratioP1;P1;durP2;ratioP2;P2;SDS_P1;SDS_P2;PMS_P1;PMS_P2;Temp;Humidity;BMP_temperature;BMP_pressure;BME280_temperature;BME280_humidity;BME280_pressure;Samples;Min_cycle;Max_cycle;Signal;HPM_P1;HPM_P2
2021/06/09 00:00:12;;;;;;;32.53;26.53;;;17.50;99.90;;;;;;5053636;28;20212;-61
2021/06/09 00:02:38;;;;;;;31.73;26.47;;;17.40;99.90;;;;;;5053507;28;20596;-61
2021/06/09 00:05:05;;;;;;;33.60;27.93;;;17.40;99.90;;;;;;5053523;28;20246;-61
2021/06/09 00:07:32;;;;;;;32.70;27.30;;;17.40;99.90;;;;;;5053575;28;20229;-61
2021/06/09 00:09:58;;;;;;;33.90;27.83;;;17.30;99.90;;;;;;5053532;28;20209;-61
2021/06/09 00:12:24;;;;;;;30.80;26.77;;;17.20;99.90;;;;;;5053611;28;20271;-61
2021/06/09 00:14:50;;;;;;;31.70;26.50;;;17.20;99.90;;;;;;5053388;28;20216;-61
2021/06/09 00:17:18;;;;;;;33.27;28.53;;;17.20;99.90;;;;;;5053175;28;20242;-61
2021/06/09 00:19:44;;;;;;;36.90;29.77;;;17.10;99.90;;;;;;5053161;28;20214;-61
2021/06/09 00:22:10;;;;;;;37.20;30.80;;;17.10;99.90;;;;;;5053241;28;20229;-61
2021/06/09 00:24:37;;;;;;;36.43;29.60;;;17.10;99.90;;;;;;5053145;28;20760;-61
2021/06/09 00:27:04;;;;;;;37.27;29.80;;;17.10;99.90;;;;;;5053262;28;20221;-61
2021/06/09 00:29:30;;;;;;;42.13;33.03;;;17.00;99.90;;;;;;5053042;28;20283;-61
2021/06/09 00:31:57;;;;;;;43.90;33.80;;;17.00;1.00;;;;;;5052848;28;20236;-61
2021/06/09 00:34:24;;;;;;;41.33;33.77;;;17.00;1.00;;;;;;5053248;28;20209;-61
2021/06/09 00:36:50;;;;;;;41.23;33.20;;;17.00;1.00;;;;;;5053031;28;20286;-61
2021/06/09 00:39:16;;;;;;;43.43;34.10;;;17.00;1.00;;;;;;5053041;28;20213;-61
2021/06/09 00:41:44;;;;;;;39.13;32.30;;;16.90;1.00;;;;;;5052598;28;20706;-60
2021/06/09 00:44:11;;;;;;;40.37;31.20;;;16.80;1.00;;;;;;5052936;28;20205;-61
2021/06/09 00:46:39;;;;;;;39.50;30.83;;;16.80;1.00;;;;;;5052422;28;20606;-61
2021/06/09 00:49:07;;;;;;;37.30;29.47;;;16.70;1.00;;;;;;5053103;28;20248;-61
2021/06/09 00:51:35;;;;;;;38.67;28.70;;;16.70;1.00;;;;;;5052605;28;20198;-61
2021/06/09 00:54:03;;;;;;;39.80;31.57;;;16.70;1.00;;;;;;5052750;28;20695;-61
2021/06/09 00:56:31;;;;;;;37.77;29.70;;;16.70;1.00;;;;;;5052647;28;20315;-61
2021/06/09 00:58:57;;;;;;;36.33;30.07;;;16.60;1.00;;;;;;5051765;28;20282;-61
2021/06/09 01:01:25;;;;;;;41.83;31.07;;;16.60;1.00;;;;;;5052238;28;20228;-61
2021/06/09 01:03:52;;;;;;;38.00;30.53;;;16.60;1.00;;;;;;5052757;28;20212;-60
2021/06/09 01:06:20;;;;;;;39.43;31.30;;;16.50;1.00;;;;;;5052746;28;20272;-60
2021/06/09 01:08:48;;;;;;;37.83;29.63;;;16.50;1.00;;;;;;5052308;28;20670;-60
2021/06/09 01:11:16;;;;;;;41.57;31.77;;;16.50;1.00;;;;;;5052339;28;20202;-60
2021/06/09 01:13:43;;;;;;;38.80;31.50;;;16.50;1.00;;;;;;5052120;28;20271;-60
2021/06/09 01:16:10;;;;;;;45.00;34.47;;;16.40;1.00;;;;;;5052591;28;20222;-60
2021/06/09 01:18:37;;;;;;;45.10;34.40;;;16.40;1.00;;;;;;5052379;28;20213;-60
2021/06/09 01:21:04;;;;;;;40.77;33.37;;;16.40;1.00;;;;;;5052136;28;20221;-60
2021/06/09 01:23:33;;;;;;;43.93;33.20;;;16.40;1.00;;;;;;5051970;28;20670;-60
2021/06/09 01:25:59;;;;;;;41.37;33.87;;;16.30;1.00;;;;;;5052026;28;20592;-59
2021/06/09 01:28:26;;;;;;;42.27;33.50;;;16.30;1.00;;;;;;5052072;28;20269;-60
2021/06/09 01:30:53;;;;;;;44.50;35.20;;;16.30;1.00;;;;;;5052004;28;20228;-60
2021/06/09 01:33:20;;;;;;;42.60;33.13;;;16.30;1.00;;;;;;5052114;28;20221;-60
2021/06/09 01:35:49;;;;;;;42.40;32.53;;;16.20;1.00;;;;;;5051933;28;20213;-60
2021/06/09 01:38:15;;;;;;;43.43;33.77;;;16.20;1.00;;;;;;5052026;28;20213;-60
2021/06/09 01:40:43;;;;;;;43.80;32.37;;;16.20;1.00;;;;;;5051663;28;20252;-60
2021/06/09 01:43:09;;;;;;;44.53;34.30;;;16.20;1.00;;;;;;5052130;28;20217;-60
2021/06/09 01:45:37;;;;;;;45.07;36.60;;;16.10;1.00;;;;;;5051916;28;20209;-60
2021/06/09 01:48:04;;;;;;;44.20;34.50;;;16.10;1.00;;;;;;5051857;28;20213;-60
2021/06/09 01:50:32;;;;;;;44.77;32.93;;;16.10;1.00;;;;;;5051627;28;20207;-60
2021/06/09 01:53:02;;;;;;;48.30;35.43;;;16.10;1.00;;;;;;5051855;28;20202;-60
2021/06/09 01:55:29;;;;;;;49.47;35.83;;;16.10;1.00;;;;;;5051804;28;20265;-60
2021/06/09 01:57:57;;;;;;;49.60;35.43;;;16.10;1.00;;;;;;5051818;28;20267;-60
2021/06/09 02:00:26;;;;;;;56.70;39.47;;;16.10;1.00;;;;;;5051686;28;20678;-60
2021/06/09 02:02:57;;;;;;;56.47;39.73;;;16.10;1.00;;;;;;5051677;28;20237;-60
2021/06/09 02:05:24;;;;;;;54.77;40.80;;;16.10;1.00;;;;;;5051732;28;20201;-60
2021/06/09 02:07:50;;;;;;;56.03;41.10;;;16.10;1.00;;;;;;5051395;28;20221;-60
2021/06/09 02:10:19;;;;;;;55.23;40.67;;;16.10;1.00;;;;;;5052604;28;20209;-60
2021/06/09 02:12:47;;;;;;;60.03;42.67;;;16.10;1.00;;;;;;5055748;28;20209;-60
2021/06/09 02:15:18;;;;;;;58.97;42.20;;;16.10;1.00;;;;;;5055745;28;20228;-60
2021/06/09 02:17:56;;;;;;;58.33;41.17;;;16.10;1.00;;;;;;5055637;28;20229;-60
2021/06/09 02:20:22;;;;;;;55.23;39.53;;;16.10;1.00;;;;;;5055458;28;20219;-60
2021/06/09 02:22:48;;;;;;;60.17;41.20;;;16.10;4.90;;;;;;5055543;28;20240;-60
2021/06/09 02:25:15;;;;;;;57.10;42.07;;;16.10;7.80;;;;;;5055739;28;20201;-60
2021/06/09 02:27:41;;;;;;;65.60;43.57;;;16.00;7.90;;;;;;5055509;28;20230;-60
2021/06/09 02:30:09;;;;;;;60.60;41.10;;;16.00;30.30;;;;;;5055193;28;20202;-60
2021/06/09 02:32:37;;;;;;;63.37;41.57;;;16.00;50.00;;;;;;5055416;28;20209;-60
2021/06/09 02:35:10;;;;;;;58.70;39.67;;;16.00;55.50;;;;;;5055141;28;20577;-60
2021/06/09 02:37:36;;;;;;;58.50;40.47;;;16.00;63.60;;;;;;5055148;28;20733;-60
2021/06/09 02:40:07;;;;;;;62.23;41.93;;;15.90;77.00;;;;;;5055207;28;20229;-60
2021/06/09 02:42:34;;;;;;;65.80;41.97;;;15.90;93.40;;;;;;5055388;28;20653;-60
2021/06/09 02:45:00;;;;;;;58.30;40.37;;;15.90;99.20;;;;;;5054995;28;20673;-60
2021/06/09 02:47:27;;;;;;;63.50;43.43;;;16.00;99.90;;;;;;5054851;28;20273;-60
2021/06/09 02:49:59;;;;;;;60.80;42.37;;;15.90;99.90;;;;;;5054833;28;20689;-60
2021/06/09 02:52:29;;;;;;;56.43;41.00;;;15.90;99.90;;;;;;5056865;28;20202;-60
2021/06/09 02:55:01;;;;;;;54.10;38.57;;;15.90;99.90;;;;;;5056332;28;20224;-60
2021/06/09 02:57:36;;;;;;;59.63;40.53;;;15.90;99.90;;;;;;5055497;28;20221;-60
2021/06/09 03:00:06;;;;;;;55.13;40.60;;;15.90;99.90;;;;;;5054907;28;20209;-60
2021/06/09 03:02:43;;;;;;;53.73;38.47;;;15.90;99.90;;;;;;5055789;28;20230;-60
2021/06/09 03:05:18;;;;;;;55.53;38.40;;;16.00;99.90;;;;;;5056190;28;20555;-61
2021/06/09 03:07:55;;;;;;;52.40;37.17;;;16.00;99.90;;;;;;5056029;28;20259;-61
2021/06/09 03:10:28;;;;;;;58.33;40.90;;;16.00;99.90;;;;;;5055264;28;20579;-61
2021/06/09 03:13:03;;;;;;;55.93;40.03;;;16.00;99.90;;;;;;5054688;28;20619;-61
2021/06/09 03:15:43;;;;;;;58.43;42.60;;;16.00;99.90;;;;;;5054601;28;20201;-60
2021/06/09 03:18:16;;;;;;;56.60;41.63;;;16.00;99.90;;;;;;5054522;28;20209;-61
2021/06/09 03:20:52;;;;;;;55.50;39.37;;;16.00;99.90;;;;;;5054169;28;20210;-61
2021/06/09 03:23:33;;;;;;;61.87;42.00;;;16.00;99.90;;;;;;5053456;28;20693;-61
2021/06/09 03:26:04;;;;;;;59.13;41.83;;;16.00;99.90;;;;;;5054300;28;20228;-61
2021/06/09 03:28:37;;;;;;;62.53;42.30;;;16.00;99.90;;;;;;5054456;28;20694;-61
2021/06/09 03:31:05;;;;;;;55.67;40.33;;;16.10;99.90;;;;;;5054154;28;20213;-61
2021/06/09 03:33:37;;;;;;;60.47;42.87;;;16.00;99.90;;;;;;5054109;28;20667;-61
2021/06/09 03:36:09;;;;;;;56.67;40.23;;;16.00;99.90;;;;;;5054200;28;20236;-61
2021/06/09 03:38:42;;;;;;;59.33;41.97;;;16.00;99.90;;;;;;5054258;28;20564;-61
2021/06/09 03:41:13;;;;;;;58.50;42.23;;;16.10;99.90;;;;;;5054025;28;20202;-61
2021/06/09 03:43:42;;;;;;;61.70;42.40;;;16.00;99.90;;;;;;5053939;28;20213;-61
2021/06/09 03:46:09;;;;;;;65.87;43.37;;;16.00;99.90;;;;;;5053772;28;20229;-60
2021/06/09 03:48:39;;;;;;;57.70;40.43;;;16.00;99.90;;;;;;5054211;28;20213;-61
2021/06/09 03:51:09;;;;;;;58.57;41.33;;;16.00;99.90;;;;;;5054013;28;20202;-61
2021/06/09 03:53:38;;;;;;;62.63;42.10;;;16.00;99.90;;;;;;5054384;28;20724;-61
2021/06/09 03:56:06;;;;;;;57.53;39.43;;;16.00;99.90;;;;;;5053797;28;20226;-61
2021/06/09 03:58:34;;;;;;;59.77;41.37;;;16.00;99.90;;;;;;5054092;28;20210;-61
2021/06/09 04:01:01;;;;;;;61.97;41.37;;;16.00;99.90;;;;;;5053967;28;20213;-60
2021/06/09 04:03:28;;;;;;;57.47;39.90;;;16.00;99.90;;;;;;5054517;28;20213;-61
2021/06/09 04:05:57;;;;;;;56.03;39.97;;;16.00;99.90;;;;;;5054309;28;20241;-60
2021/06/09 04:08:26;;;;;;;54.90;39.70;;;16.00;99.90;;;;;;5054287;28;20210;-61
2021/06/09 04:10:54;;;;;;;57.20;40.83;;;16.00;99.90;;;;;;5053498;28;20247;-61
2021/06/09 04:13:21;;;;;;;60.43;43.83;;;16.00;99.90;;;;;;5053623;28;20751;-61
2021/06/09 04:15:50;;;;;;;61.70;43.00;;;16.00;99.90;;;;;;5053622;28;20218;-61
2021/06/09 04:18:18;;;;;;;70.77;46.70;;;16.00;99.90;;;;;;5070815;28;20213;-61
2021/06/09 04:20:47;;;;;;;65.23;45.17;;;15.90;99.90;;;;;;5072324;28;20208;-61
2021/06/09 04:23:14;;;;;;;61.20;42.90;;;16.00;99.90;;;;;;5072800;28;20709;-61
2021/06/09 04:25:41;;;;;;;65.33;44.90;;;16.00;99.90;;;;;;5072680;28;20201;-61
2021/06/09 04:28:10;;;;;;;60.13;42.20;;;16.00;99.90;;;;;;5073153;28;20213;-64
2021/06/09 04:30:36;;;;;;;62.07;44.33;;;16.00;99.90;;;;;;5072770;28;20745;-61
2021/06/09 04:33:06;;;;;;;60.30;41.93;;;16.00;99.90;;;;;;5072862;28;20250;-63
2021/06/09 04:35:38;;;;;;;49.50;33.60;;;16.00;99.90;;;;;;5072939;28;20674;-62
2021/06/09 04:38:04;;;;;;;52.13;36.93;;;16.10;99.90;;;;;;5072882;28;20262;-62
2021/06/09 04:40:31;;;;;;;47.37;34.87;;;16.20;99.90;;;;;;5072860;28;20213;-62
2021/06/09 04:42:59;;;;;;;48.67;36.20;;;16.30;99.90;;;;;;5072861;28;20239;-62
2021/06/09 04:45:28;;;;;;;49.87;37.77;;;16.40;99.90;;;;;;5072789;28;20213;-62
2021/06/09 04:47:54;;;;;;;47.40;35.67;;;16.50;49.70;;;;;;5072962;28;20244;-62
2021/06/09 04:50:22;;;;;;;46.77;35.50;;;16.60;33.90;;;;;;5072470;28;20204;-62
2021/06/09 04:52:50;;;;;;;46.00;34.97;;;16.70;25.80;;;;;;5068062;28;20190;-62
2021/06/09 04:55:18;;;;;;;45.20;34.60;;;16.80;20.50;;;;;;5055709;28;20202;-63
2021/06/09 04:57:44;;;;;;;39.20;30.30;;;16.90;8.40;;;;;;5052573;28;20718;-62
2021/06/09 05:00:15;;;;;;;45.13;34.30;;;17.00;1.00;;;;;;5052202;28;20669;-62
2021/06/09 05:02:44;;;;;;;46.57;34.73;;;17.20;1.00;;;;;;5052386;28;20590;-62
2021/06/09 05:05:11;;;;;;;41.90;31.53;;;17.20;1.00;;;;;;5052306;28;20209;-62
2021/06/09 05:07:37;;;;;;;46.67;35.10;;;17.20;1.00;;;;;;5052320;28;20267;-62
2021/06/09 05:10:04;;;;;;;45.73;34.73;;;17.30;1.00;;;;;;5052505;28;20573;-63
2021/06/09 05:12:32;;;;;;;40.27;30.47;;;17.40;1.00;;;;;;5052094;28;20674;-63
2021/06/09 05:15:02;;;;;;;48.63;37.90;;;17.50;1.00;;;;;;5052294;28;20209;-63
2021/06/09 05:17:33;;;;;;;51.07;38.07;;;17.60;1.00;;;;;;5051787;28;20226;-63
2021/06/09 05:20:01;;;;;;;44.33;32.67;;;17.60;1.00;;;;;;5051984;28;20666;-62
2021/06/09 05:22:32;;;;;;;41.63;31.50;;;17.60;1.00;;;;;;5052131;28;20234;-63
2021/06/09 05:25:03;;;;;;;46.57;31.53;;;17.80;1.00;;;;;;5052117;28;20225;-63
2021/06/09 05:27:30;;;;;;;45.50;35.37;;;17.80;1.00;;;;;;5051888;28;20252;-60
2021/06/09 05:29:58;;;;;;;46.83;35.83;;;17.70;1.00;;;;;;5055115;28;20220;-64
2021/06/09 05:32:26;;;;;;;44.60;35.20;;;17.70;1.00;;;;;;5061894;28;20212;-63
2021/06/09 05:34:53;;;;;;;48.00;35.60;;;17.70;1.00;;;;;;5071626;28;20212;-61
2021/06/09 05:37:20;;;;;;;43.90;34.17;;;17.70;1.00;;;;;;5070118;28;20217;-62
2021/06/09 05:39:46;;;;;;;45.07;35.60;;;17.80;1.00;;;;;;5071302;28;20622;-63
2021/06/09 05:42:14;;;;;;;43.50;34.17;;;17.90;1.00;;;;;;5071202;28;20228;-63
2021/06/09 05:44:42;;;;;;;43.03;33.20;;;18.00;1.00;;;;;;5070802;28;20299;-63
2021/06/09 05:47:09;;;;;;;42.53;34.07;;;18.10;1.00;;;;;;5071300;28;20241;-64
2021/06/09 05:49:36;;;;;;;44.03;33.97;;;18.20;1.00;;;;;;5071528;28;20227;-62
2021/06/09 05:52:04;;;;;;;43.73;33.17;;;18.40;1.00;;;;;;5071171;28;20212;-62
2021/06/09 05:54:34;;;;;;;42.90;33.23;;;18.50;1.00;;;;;;5071208;28;20250;-63
2021/06/09 05:57:01;;;;;;;46.43;33.70;;;18.70;1.00;;;;;;5071124;28;20229;-61
2021/06/09 05:59:27;;;;;;;42.67;33.63;;;18.80;1.00;;;;;;5071541;28;20259;-62
2021/06/09 06:01:53;;;;;;;46.40;33.27;;;18.90;1.00;;;;;;5070561;28;20233;-62
2021/06/09 06:04:20;;;;;;;43.40;33.70;;;19.10;1.00;;;;;;5070231;28;20208;-62
2021/06/09 06:06:48;;;;;;;45.27;33.80;;;19.20;1.00;;;;;;5070720;28;20833;-62
2021/06/09 06:09:16;;;;;;;46.53;34.83;;;19.20;99.90;;;;;;5070945;28;20228;-62
2021/06/09 06:11:43;;;;;;;44.57;32.90;;;19.40;99.90;;;;;;5070121;28;20222;-60
2021/06/09 06:14:11;;;;;;;43.60;33.73;;;19.50;99.90;;;;;;5070549;28;20205;-61
2021/06/09 06:16:38;;;;;;;49.90;35.97;;;19.60;99.90;;;;;;5070908;28;20744;-62
2021/06/09 06:19:06;;;;;;;50.27;35.43;;;19.70;99.90;;;;;;5070903;28;20258;-62
2021/06/09 06:21:32;;;;;;;48.80;34.53;;;19.90;99.90;;;;;;5070603;28;20221;-63
2021/06/09 06:23:59;;;;;;;49.70;35.90;;;20.00;99.90;;;;;;5070991;28;20212;-65
2021/06/09 06:26:27;;;;;;;49.50;36.93;;;20.10;99.90;;;;;;5071225;28;20239;-64
2021/06/09 06:28:54;;;;;;;52.77;37.33;;;20.20;99.90;;;;;;5071410;28;20631;-64
2021/06/09 06:31:22;;;;;;;48.00;35.63;;;20.30;99.90;;;;;;5071271;28;20220;-62
2021/06/09 06:33:51;;;;;;;50.40;36.20;;;20.30;99.90;;;;;;5061325;28;20214;-64
2021/06/09 06:36:20;;;;;;;50.03;36.27;;;20.40;99.90;;;;;;5051021;28;20291;-63
2021/06/09 06:38:47;;;;;;;48.73;36.63;;;20.50;99.90;;;;;;5050876;28;20206;-64
2021/06/09 06:41:14;;;;;;;41.20;32.57;;;20.60;99.90;;;;;;5050739;28;20670;-66
2021/06/09 06:43:42;;;;;;;41.17;32.07;;;20.60;99.90;;;;;;5050896;28;20678;-66
2021/06/09 06:46:12;;;;;;;41.33;32.37;;;20.60;99.90;;;;;;5050824;28;20228;-66
2021/06/09 06:48:39;;;;;;;43.77;34.77;;;20.70;99.90;;;;;;5050926;28;20610;-66
2021/06/09 06:51:07;;;;;;;37.13;30.97;;;20.90;99.90;;;;;;5050591;28;20225;-66
2021/06/09 06:53:34;;;;;;;38.83;31.40;;;21.00;99.90;;;;;;5050656;28;20217;-64
2021/06/09 06:56:03;;;;;;;40.20;30.80;;;21.20;99.90;;;;;;5050977;28;20226;-63
2021/06/09 06:58:31;;;;;;;43.13;32.57;;;21.30;99.90;;;;;;5053114;28;20704;-65
2021/06/09 07:00:59;;;;;;;42.80;32.80;;;21.40;99.90;;;;;;5054294;28;20210;-65
2021/06/09 07:03:27;;;;;;;43.97;32.87;;;21.40;99.90;;;;;;5054079;28;20256;-66
2021/06/09 07:05:54;;;;;;;43.83;34.43;;;21.50;99.90;;;;;;5054113;28;20212;-66
2021/06/09 07:08:21;;;;;;;47.50;37.17;;;21.60;99.90;;;;;;5054451;28;20228;-65
2021/06/09 07:10:47;;;;;;;44.47;34.10;;;21.50;99.90;;;;;;5054176;28;20210;-65
2021/06/09 07:13:15;;;;;;;44.97;34.60;;;21.70;99.90;;;;;;5054031;28;20252;-65
2021/06/09 07:15:42;;;;;;;39.67;30.87;;;21.70;99.90;;;;;;5054023;28;20296;-65
2021/06/09 07:18:11;;;;;;;35.03;29.40;;;21.90;99.90;;;;;;5053973;28;20210;-65
2021/06/09 07:20:37;;;;;;;44.27;32.00;;;22.10;99.90;;;;;;5053915;28;20689;-64
2021/06/09 07:23:04;;;;;;;39.80;32.40;;;22.00;99.90;;;;;;5053898;28;20236;-64
2021/06/09 07:25:31;;;;;;;41.37;33.00;;;22.20;99.90;;;;;;5054121;28;20209;-64
2021/06/09 07:28:00;;;;;;;40.70;31.90;;;22.20;99.90;;;;;;5053927;28;20222;-64
2021/06/09 07:30:28;;;;;;;40.07;31.87;;;22.20;99.90;;;;;;5053674;28;20255;-66
2021/06/09 07:32:55;;;;;;;41.07;33.07;;;22.20;99.90;;;;;;5053494;28;20301;-65
2021/06/09 07:35:23;;;;;;;40.57;32.37;;;22.10;99.90;;;;;;5053992;28;20210;-65
2021/06/09 07:37:54;;;;;;;40.37;33.60;;;22.30;99.90;;;;;;5053875;28;20229;-66
2021/06/09 07:40:23;;;;;;;38.93;32.63;;;22.40;99.90;;;;;;5053691;28;20210;-65
2021/06/09 07:42:54;;;;;;;41.97;32.53;;;22.40;99.90;;;;;;5053526;28;20275;-66
2021/06/09 07:45:22;;;;;;;37.43;31.73;;;22.50;99.90;;;;;;5053443;28;20612;-66
2021/06/09 07:47:50;;;;;;;38.00;32.23;;;22.70;99.90;;;;;;5053242;28;20230;-64
2021/06/09 07:50:25;;;;;;;38.50;31.50;;;22.70;99.90;;;;;;5053289;28;20205;-64
2021/06/09 07:52:54;;;;;;;40.53;31.57;;;22.90;99.90;;;;;;5053332;28;20571;-64
2021/06/09 07:55:20;;;;;;;40.83;32.60;;;23.20;99.90;;;;;;5053376;28;20296;-63
2021/06/09 07:57:46;;;;;;;38.23;32.37;;;23.10;99.90;;;;;;5053397;28;20229;-63
2021/06/09 08:00:14;;;;;;;36.80;30.20;;;23.00;99.90;;;;;;5053310;28;20216;-64
2021/06/09 08:02:41;;;;;;;35.57;31.03;;;23.20;99.90;;;;;;5052930;28;20791;-64
2021/06/09 08:05:08;;;;;;;37.93;31.00;;;23.30;99.90;;;;;;5053211;28;20598;-65
2021/06/09 08:07:37;;;;;;;34.83;29.07;;;23.40;99.90;;;;;;5053132;28;20225;-64
2021/06/09 08:10:07;;;;;;;31.63;26.83;;;23.70;99.90;;;;;;5053048;28;20228;-64
2021/06/09 08:12:34;;;;;;;33.33;28.37;;;23.90;99.90;;;;;;5052588;28;20198;-65
2021/06/09 08:15:00;;;;;;;34.33;29.63;;;23.90;99.90;;;;;;5053245;28;20292;-64
2021/06/09 08:17:27;;;;;;;33.07;28.80;;;23.70;99.90;;;;;;5052921;28;20233;-66
2021/06/09 08:19:53;;;;;;;31.40;25.63;;;23.50;99.90;;;;;;5053072;28;20209;-67
2021/06/09 08:22:19;;;;;;;31.93;24.17;;;23.80;99.90;;;;;;5052351;28;20570;-65
2021/06/09 08:24:48;;;;;;;35.37;27.20;;;23.90;99.90;;;;;;5052952;28;20670;-66
2021/06/09 08:27:15;;;;;;;31.30;25.73;;;24.10;99.90;;;;;;5052950;28;20234;-65
2021/06/09 08:29:45;;;;;;;29.77;25.87;;;24.10;99.90;;;;;;5053317;28;20210;-66
2021/06/09 08:32:11;;;;;;;31.70;25.73;;;23.70;99.90;;;;;;5052768;28;20211;-65
2021/06/09 08:34:37;;;;;;;30.07;26.87;;;23.70;99.90;;;;;;5052948;28;20268;-66
2021/06/09 08:37:04;;;;;;;28.27;25.27;;;23.40;99.90;;;;;;5052838;28;20740;-67
2021/06/09 08:39:31;;;;;;;28.30;24.50;;;23.20;99.90;;;;;;5052916;28;20202;-66
2021/06/09 08:42:04;;;;;;;31.77;25.97;;;23.30;99.90;;;;;;5052490;28;20232;-65
2021/06/09 08:44:34;;;;;;;28.73;24.77;;;23.50;99.90;;;;;;5052708;28;20214;-67
2021/06/09 08:47:03;;;;;;;27.27;22.47;;;23.80;99.90;;;;;;5052178;28;20617;-66
2021/06/09 08:49:30;;;;;;;28.03;25.00;;;23.90;99.90;;;;;;5052278;28;20213;-67
2021/06/09 08:51:56;;;;;;;27.23;21.80;;;23.90;99.90;;;;;;5052283;28;20209;-66
2021/06/09 08:54:24;;;;;;;31.63;25.27;;;24.10;99.90;;;;;;5053193;28;20205;-66
2021/06/09 08:56:51;;;;;;;29.40;25.90;;;24.20;99.90;;;;;;5053569;28;20236;-66
2021/06/09 08:59:22;;;;;;;29.53;24.57;;;24.20;99.90;;;;;;5053449;28;20598;-64
2021/06/09 09:01:48;;;;;;;28.67;24.87;;;24.00;99.90;;;;;;5052365;28;20230;-64
2021/06/09 09:04:15;;;;;;;28.13;25.13;;;23.60;99.90;;;;;;5052220;28;20209;-64
2021/06/09 09:06:41;;;;;;;29.87;26.30;;;23.40;99.90;;;;;;5052166;28;20279;-65
2021/06/09 09:09:07;;;;;;;29.87;26.47;;;22.90;99.90;;;;;;5052228;28;20211;-64
2021/06/09 09:11:34;;;;;;;32.87;28.33;;;23.00;99.90;;;;;;5051909;28;20212;-65
2021/06/09 09:14:00;;;;;;;33.83;28.53;;;22.90;99.90;;;;;;5052323;28;20205;-64
2021/06/09 09:16:28;;;;;;;30.30;27.03;;;23.30;99.90;;;;;;5053122;28;20229;-64
2021/06/09 09:19:00;;;;;;;33.60;30.10;;;23.60;99.90;;;;;;5053316;28;20206;-65
2021/06/09 09:21:35;;;;;;;34.13;29.33;;;23.90;99.90;;;;;;5052399;28;20201;-65
2021/06/09 09:24:04;;;;;;;34.40;29.73;;;24.20;99.90;;;;;;5051762;28;20213;-64
2021/06/09 09:26:32;;;;;;;38.33;29.83;;;24.40;99.90;;;;;;5051637;28;20317;-64
2021/06/09 09:29:10;;;;;;;38.93;30.53;;;24.10;99.90;;;;;;5051750;28;20201;-64
2021/06/09 09:31:52;;;;;;;32.20;28.50;;;23.90;99.90;;;;;;5051126;28;20201;-65
2021/06/09 09:34:29;;;;;;;31.13;27.80;;;23.60;99.90;;;;;;5051766;28;20289;-63
2021/06/09 09:37:03;;;;;;;32.23;27.63;;;23.60;99.90;;;;;;5051288;28;20232;-66
2021/06/09 09:39:30;;;;;;;32.07;27.80;;;23.70;99.90;;;;;;5051596;28;20639;-66
2021/06/09 09:41:57;;;;;;;33.63;30.13;;;23.70;99.90;;;;;;5050736;28;20225;-67
2021/06/09 09:44:23;;;;;;;33.57;30.07;;;23.40;99.90;;;;;;5051506;28;20271;-64
2021/06/09 09:46:52;;;;;;;32.57;29.20;;;23.20;99.90;;;;;;5051221;28;20241;-64
2021/06/09 09:49:19;;;;;;;33.33;29.73;;;23.40;99.90;;;;;;5051633;28;20256;-66
2021/06/09 09:52:01;;;;;;;31.67;27.13;;;23.50;99.90;;;;;;5051268;28;20214;-67
2021/06/09 09:54:29;;;;;;;30.90;24.87;;;23.90;99.90;;;;;;5052008;28;20200;-65
2021/06/09 09:56:56;;;;;;;26.77;23.23;;;24.10;99.90;;;;;;5051746;28;20233;-66
2021/06/09 09:59:25;;;;;;;26.10;23.37;;;24.20;99.90;;;;;;5051268;28;20701;-66
2021/06/09 10:01:55;;;;;;;27.10;23.70;;;24.20;99.90;;;;;;5051371;28;20210;-67
2021/06/09 10:04:23;;;;;;;30.63;25.57;;;24.10;99.90;;;;;;5051502;28;20585;-65
2021/06/09 10:06:50;;;;;;;26.87;23.53;;;23.80;99.90;;;;;;5051158;28;20235;-65
2021/06/09 10:09:19;;;;;;;26.87;23.97;;;24.10;99.90;;;;;;5050918;28;20201;-66
2021/06/09 10:11:48;;;;;;;26.87;23.97;;;24.00;99.90;;;;;;5051168;28;20206;-66
2021/06/09 10:14:16;;;;;;;27.23;24.50;;;23.80;99.90;;;;;;5051120;28;20666;-65
2021/06/09 10:16:43;;;;;;;28.47;25.30;;;23.70;99.90;;;;;;5051129;28;20595;-65
2021/06/09 10:19:12;;;;;;;27.90;24.43;;;24.00;99.90;;;;;;5051242;28;20221;-63
2021/06/09 10:21:50;;;;;;;27.87;24.97;;;24.40;99.90;;;;;;5050699;28;20216;-63
2021/06/09 10:24:17;;;;;;;31.27;25.53;;;24.80;99.90;;;;;;5051313;28;20205;-64
2021/06/09 10:26:51;;;;;;;28.50;24.07;;;25.00;99.90;;;;;;5051175;28;20226;-64
2021/06/09 10:29:19;;;;;;;21.50;19.27;;;25.20;99.90;;;;;;5051171;28;20213;-64
2021/06/09 10:31:48;;;;;;;22.10;19.77;;;25.10;99.90;;;;;;5052332;28;20212;-67
2021/06/09 10:34:16;;;;;;;22.27;19.83;;;25.00;99.90;;;;;;5054706;28;20206;-68
2021/06/09 10:36:45;;;;;;;20.67;18.30;;;25.10;99.90;;;;;;5055068;28;20225;-67
2021/06/09 10:39:12;;;;;;;20.87;18.63;;;25.10;99.90;;;;;;5054945;28;20292;-63
2021/06/09 10:41:43;;;;;;;23.73;19.13;;;25.20;99.90;;;;;;5054116;28;20209;-67
2021/06/09 10:44:11;;;;;;;21.40;19.00;;;25.50;99.90;;;;;;5054603;28;20206;-67
2021/06/09 10:46:40;;;;;;;20.97;18.50;;;25.50;99.90;;;;;;5054139;28;20248;-67
2021/06/09 10:49:07;;;;;;;19.63;17.60;;;25.50;99.90;;;;;;5054959;28;20208;-66
2021/06/09 10:51:34;;;;;;;20.87;18.67;;;25.80;99.90;;;;;;5054494;28;20215;-67
2021/06/09 10:54:04;;;;;;;23.07;17.63;;;25.40;99.90;;;;;;5054504;28;20206;-66
2021/06/09 10:56:31;;;;;;;19.57;16.70;;;25.00;99.90;;;;;;5054612;28;20756;-66
2021/06/09 10:58:57;;;;;;;20.63;18.27;;;24.60;99.90;;;;;;5054655;28;20232;-66
2021/06/09 11:01:27;;;;;;;18.53;15.27;;;24.20;99.90;;;;;;5054308;28;20220;-67
2021/06/09 11:03:58;;;;;;;18.30;16.40;;;24.00;99.90;;;;;;5054821;28;20253;-68
2021/06/09 11:06:38;;;;;;;17.30;14.93;;;23.80;99.90;;;;;;5054153;28;20771;-68
2021/06/09 11:09:22;;;;;;;22.97;16.40;;;23.80;99.90;;;;;;5054463;28;20216;-67
2021/06/09 11:12:29;;;;;;;18.77;16.77;;;24.10;99.90;;;;;;5053978;28;20210;-66
2021/06/09 11:14:57;;;;;;;17.70;15.87;;;24.60;99.90;;;;;;5049134;28;20278;-65
2021/06/09 11:17:48;;;;;;;22.03;18.67;;;25.20;99.90;;;;;;5054163;28;20276;-66
2021/06/09 11:20:21;;;;;;;20.13;17.93;;;25.60;99.90;;;;;;5039246;28;20708;-65
2021/06/09 11:22:50;;;;;;;19.57;17.43;;;25.70;99.90;;;;;;5053909;28;20598;-65
2021/06/09 11:25:22;;;;;;;18.23;16.33;;;25.70;99.90;;;;;;5054378;28;20210;-68
2021/06/09 11:28:01;;;;;;;20.67;18.53;;;25.70;99.90;;;;;;5053953;28;20221;-67
2021/06/09 11:30:45;;;;;;;19.70;17.50;;;25.60;99.90;;;;;;5053739;28;20205;-67
2021/06/09 11:33:38;;;;;;;19.30;16.10;;;25.60;99.90;;;;;;5054017;28;20197;-67
2021/06/09 11:36:06;;;;;;;19.43;16.97;;;25.70;99.90;;;;;;5054147;28;20229;-66
2021/06/09 11:38:38;;;;;;;18.90;16.87;;;25.70;99.90;;;;;;5053731;28;20224;-67
2021/06/09 11:41:06;;;;;;;16.33;14.70;;;25.70;99.90;;;;;;5053844;28;20217;-67
2021/06/09 11:43:37;;;;;;;16.97;14.00;;;25.90;99.90;;;;;;5053085;28;20230;-67
2021/06/09 11:46:07;;;;;;;15.90;14.30;;;26.00;99.90;;;;;;5053864;28;20228;-66
2021/06/09 11:48:35;;;;;;;20.53;15.50;;;25.90;99.90;;;;;;5053591;28;20210;-67
2021/06/09 11:51:26;;;;;;;19.60;13.93;;;25.40;99.90;;;;;;5053229;28;20205;-66
2021/06/09 11:53:56;;;;;;;18.03;15.80;;;25.30;99.90;;;;;;5050355;28;20577;-66
2021/06/09 11:56:25;;;;;;;20.23;16.93;;;25.20;99.90;;;;;;5053779;28;20225;-66
2021/06/09 11:58:54;;;;;;;23.47;17.07;;;25.10;99.90;;;;;;5053509;28;20205;-66
2021/06/09 12:01:21;;;;;;;20.10;17.60;;;25.20;99.90;;;;;;5070454;28;20201;-65
2021/06/09 12:04:10;;;;;;;19.27;17.40;;;25.30;99.90;;;;;;5072877;28;20244;-66
2021/06/09 12:06:41;;;;;;;20.30;18.17;;;25.50;99.90;;;;;;5073248;28;20713;-66
2021/06/09 12:09:09;;;;;;;20.07;17.10;;;25.60;99.90;;;;;;5073166;28;20603;-67
2021/06/09 12:11:37;;;;;;;18.10;16.20;;;25.80;99.90;;;;;;5072995;28;20213;-64
2021/06/09 12:14:18;;;;;;;19.30;17.50;;;26.10;99.90;;;;;;5072915;28;20274;-64
2021/06/09 12:16:44;;;;;;;20.77;14.60;;;26.50;99.90;;;;;;5106703;22;20223;-64
2021/06/09 12:19:25;;;;;;;17.00;15.13;;;26.90;99.90;;;;;;5093342;28;20205;-63
2021/06/09 12:21:55;;;;;;;18.03;16.10;;;27.10;99.90;;;;;;5093035;28;20204;-64
2021/06/09 12:24:23;;;;;;;17.23;15.47;;;26.80;99.90;;;;;;5093136;28;20216;-64
2021/06/09 12:26:52;;;;;;;19.33;17.20;;;26.60;99.90;;;;;;5100676;22;20232;-64
2021/06/09 12:29:23;;;;;;;19.80;17.80;;;26.30;99.90;;;;;;4971598;28;20212;-64
2021/06/09 12:31:50;;;;;;;22.43;18.97;;;25.70;99.90;;;;;;4951818;28;20232;-66
2021/06/09 12:34:24;;;;;;;20.70;18.60;;;25.40;99.90;;;;;;4952006;29;20280;-64
2021/06/09 12:36:52;;;;;;;18.77;16.20;;;25.30;99.90;;;;;;4951564;29;20243;-65